Time;durP1;ratioP1;P1;durP2;ratioP2;P2;SDS_P1;SDS_P2;PMS_P1;PMS_P2;Temp;Humidity;BMP_temperature;BMP_pressure;BME280_temperature;BME280_humidity;BME280_pressure;Samples;Min_cycle;Max_cycle;Signal;HPM_P1;HPM_P2
2023/09/29 00:01:11;;;;;;;;;;;;;;;;;;2222138;58;1864;-81
2023/09/29 00:03:46;;;;;;;;;;;;;;;;;;2222929;59;2317;-81
2023/09/29 00:06:20;;;;;;;;;;;;;;;;;;2219594;58;2519;-80
2023/09/29 00:09:07;;;;;;;;;;;;;;;;;;2222610;66;1871;-80
2023/09/29 00:11:41;;;;;;;;;;;;;;;;;;2223999;58;1861;-80
2023/09/29 00:14:24;;;;;;;;;;;;;;;;;;2222380;58;2038;-80
2023/09/29 00:16:54;;;;;;;;;;;;;;;;;;2224541;66;1999;-80
2023/09/29 00:19:25;;;;;;;;;;;;;;;;;;2219625;58;1809;-80
2023/09/29 00:21:56;;;;;;;;;;;;;;;;;;2223402;58;4279;-80
2023/09/29 00:24:29;;;;;;;;;;;;;;;;;;2222971;58;1896;-80
2023/09/29 00:27:02;;;;;;;;;;;;;;;;;;2224361;58;1957;-80
2023/09/29 00:29:35;;;;;;;;;;;;;;;;;;2223973;59;2303;-80
2023/09/29 00:32:09;;;;;;;;;;;;;;;;;;2222995;58;1699;-81
2023/09/29 00:34:42;;;;;;;;;;;;;;;;;;2223437;58;2028;-79
2023/09/29 00:37:25;;;;;;;;;;;;;;;;;;2222418;58;1856;-81
2023/09/29 00:40:00;;;;;;;;;;;;;;;;;;2228232;58;1826;-81
2023/09/29 00:42:31;;;;;;;;;;;;;;;;;;2228077;58;2017;-80
2023/09/29 00:45:10;;;;;;;;;;;;;;;;;;2227331;58;1829;-80
2023/09/29 00:47:46;;;;;;;;;;;;;;;;;;2224149;58;1807;-80
2023/09/29 00:50:26;;;;;;;;;;;;;;;;;;2221908;58;3085;-80
2023/09/29 00:53:16;;;;;;;;;;;;;;;;;;2226277;59;1831;-80
2023/09/29 00:55:48;;;;;;;;;;;;;;;;;;2229831;58;1714;-80
2023/09/29 00:58:21;;;;;;;;;;;;;;;;;;2228908;58;1895;-80
2023/09/29 01:01:04;;;;;;;;;;;;;;;;;;;;;
2023/09/29 01:03:39;;;;;;;;;;;;;;;;;;2221868;59;2199;-81
2023/09/29 01:06:09;;;;;;;;;;;;;;;;;;2221591;58;2586;-81
2023/09/29 01:08:40;;;;;;;;;;;;;;;;;;2222956;58;1795;-81
2023/09/29 01:11:17;;;;;;;;;;;;;;;;;;2223032;58;1878;-80
2023/09/29 01:13:51;;;;;;;;;;;;;;;;;;2228877;66;1928;-81
2023/09/29 01:16:22;;;;;;;;;;;;;;;;;;2227643;63;1779;-80
2023/09/29 01:19:01;;;;;;;;;;;;;;;;;;2224681;58;2976;-80
2023/09/29 01:21:32;;;;;;;;;;;;;;;;;;2223419;58;2037;-81
2023/09/29 01:24:08;;;;;;;;;;;;;;;;;;2223400;58;2554;-81
2023/09/29 01:26:44;;;;;;;;;;;;;;;;;;2223930;59;2191;-81
2023/09/29 01:29:15;;;;;;;;;;;;;;;;;;2223214;58;1850;-80
2023/09/29 01:31:45;;;;;;;;;;;;;;;;;;2224111;58;2009;-80
2023/09/29 01:34:19;;;;;;;;;;;;;;;;;;2223520;58;1921;-79
2023/09/29 01:36:54;;;;;;;;;;;;;;;;;;2223976;59;1787;-81
2023/09/29 01:39:33;;;;;;;;;;;;;;;;;;2223815;58;2094;-80
2023/09/29 01:42:07;;;;;;;;;;;;;;;;;;2224589;58;1906;-79
2023/09/29 01:44:40;;;;;;;;;;;;;;;;;;2223673;58;2056;-80
2023/09/29 01:47:14;;;;;;;;;;;;;;;;;;2223516;58;2255;-80
2023/09/29 01:49:48;;;;;;;;;;;;;;;;;;2224492;58;1998;-80
2023/09/29 01:52:26;;;;;;;;;;;;;;;;;;2224009;58;3147;-81
2023/09/29 01:55:16;;;;;;;;;;;;;;;;;;2223633;58;2532;-80
2023/09/29 01:57:57;;;;;;;;;;;;;;;;;;2222139;58;2204;-81
2023/09/29 02:00:33;;;;;;;;;;;;;;;;;;2220361;59;1818;-80
2023/09/29 02:03:07;;;;;;;;;;;;;;;;;;2224273;59;1582;-80
2023/09/29 02:05:38;;;;;;;;;;;;;;;;;;2221652;58;2678;-81
2023/09/29 02:08:11;;;;;;;;;;;;;;;;;;2220899;59;2470;-80
2023/09/29 02:10:50;;;;;;;;;;;;;;;;;;2223821;58;2509;-80
2023/09/29 02:13:21;;;;;;;;;;;;;;;;;;2222717;58;1972;-80
2023/09/29 02:16:03;;;;;;;;;;;;;;;;;;2223758;66;1780;-81
2023/09/29 02:18:42;;;;;;;;;;;;;;;;;;2224022;58;2409;-80
2023/09/29 02:21:34;;;;;;;;;;;;;;;;;;2222345;58;1922;-81
2023/09/29 02:24:08;;;;;;;;;;;;;;;;;;2224470;58;1887;-80
2023/09/29 02:26:44;;;;;;;;;;;;;;;;;;2223343;58;1909;-81
2023/09/29 02:29:27;;;;;;;;;;;;;;;;;;2222509;58;3197;-80
2023/09/29 02:32:02;;;;;;;;;;;;;;;;;;2223953;58;1720;-81
2023/09/29 02:34:38;;;;;;;;;;;;;;;;;;2223588;58;2147;-80
2023/09/29 02:37:09;;;;;;;;;;;;;;;;;;2224383;58;3243;-80
2023/09/29 02:39:57;;;;;;;;;;;;;;;;;;2223068;58;1702;-81
2023/09/29 02:42:33;;;;;;;;;;;;;;;;;;2222821;58;2276;-81
2023/09/29 02:45:07;;;;;;;;;;;;;;;;;;2223606;58;1627;-80
2023/09/29 02:47:39;;;;;;;;;;;;;;;;;;2223107;58;2097;-81
2023/09/29 02:50:12;;;;;;;;;;;;;;;;;;2224829;58;1947;-80
2023/09/29 02:52:53;;;;;;;;;;;;;;;;;;2224192;58;1999;-80
2023/09/29 02:55:39;;;;;;;;;;;;;;;;;;2223636;66;1999;-80
2023/09/29 02:58:13;;;;;;;;;;;;;;;;;;2224194;59;1839;-81
2023/09/29 03:00:47;;;;;;;;;;;;;;;;;;2223866;58;1790;-80
2023/09/29 03:03:36;;;;;;;;;;;;;;;;;;2222490;59;3330;-80
2023/09/29 03:06:12;;;;;;;;;;;;;;;;;;2223290;58;2153;-80
2023/09/29 03:08:46;;;;;;;;;;;;;;;;;;2222862;58;2154;-80
2023/09/29 03:11:26;;;;;;;;;;;;;;;;;;2223369;58;1765;-80
2023/09/29 03:14:00;;;;;;;;;;;;;;;;;;2223727;58;2299;-81
2023/09/29 03:16:42;;;;;;;;;;;;;;;;;;2222112;59;2431;-81
2023/09/29 03:19:16;;;;;;;;;;;;;;;;;;2224484;58;2009;-81
2023/09/29 03:22:04;;;;;;;;;;;;;;;;;;;;;
2023/09/29 03:24:37;;;;;;;;;;;;;;;;;;2222635;58;2699;-81
2023/09/29 03:27:08;;;;;;;;;;;;;;;;;;2223949;58;1879;-81
2023/09/29 03:29:42;;;;;;;;;;;;;;;;;;2223969;58;3250;-80
2023/09/29 03:32:18;;;;;;;;;;;;;;;;;;2223953;58;1614;-82
2023/09/29 03:34:52;;;;;;;;;;;;;;;;;;2224394;58;1931;-80
2023/09/29 03:37:36;;;;;;;;;;;;;;;;;;2220143;58;1816;-81
2023/09/29 03:40:18;;;;;;;;;;;;;;;;;;2223738;58;1807;-80
2023/09/29 03:42:50;;;;;;;;;;;;;;;;;;2224046;58;1631;-80
2023/09/29 03:45:36;;;;;;;;;;;;;;;;;;2223659;58;1803;-80
2023/09/29 03:48:12;;;;;;;;;;;;;;;;;;2224295;58;1854;-80
2023/09/29 03:50:49;;;;;;;;;;;;;;;;;;2223723;58;1805;-80
2023/09/29 03:53:21;;;;;;;;;;;;;;;;;;2224059;58;2310;-80
2023/09/29 03:55:52;;;;;;;;;;;;;;;;;;2224041;58;1801;-80
2023/09/29 03:58:26;;;;;;;;;;;;;;;;;;2222174;58;1810;-80
2023/09/29 04:01:02;;;;;;;;;;;;;;;;;;2224404;66;1854;-80
2023/09/29 04:03:36;;;;;;;;;;;;;;;;;;2222409;58;1986;-80
2023/09/29 04:06:10;;;;;;;;;;;;;;;;;;2224038;58;2513;-81
2023/09/29 04:08:44;;;;;;;;;;;;;;;;;;2221115;58;2177;-80
2023/09/29 04:11:14;;;;;;;;;;;;;;;;;;2223615;58;2567;-82
2023/09/29 04:13:45;;;;;;;;;;;;;;;;;;2222984;58;1937;-81
2023/09/29 04:16:17;;;;;;;;;;;;;;;;;;2223361;58;1834;-80
2023/09/29 04:18:53;;;;;;;;;;;;;;;;;;2221229;58;2864;-81
2023/09/29 04:21:24;;;;;;;;;;;;;;;;;;2223385;58;1817;-81
2023/09/29 04:23:59;;;;;;;;;;;;;;;;;;2223309;59;2646;-81
2023/09/29 04:26:32;;;;;;;;;;;;;;;;;;2222357;58;2280;-80
2023/09/29 04:29:05;;;;;;;;;;;;;;;;;;2225289;59;1717;-80
2023/09/29 04:31:41;;;;;;;;;;;;;;;;;;2222919;58;2623;-80
2023/09/29 04:34:17;;;;;;;;;;;;;;;;;;2222233;58;1999;-80
2023/09/29 04:36:48;;;;;;;;;;;;;;;;;;2222462;58;1805;-80
2023/09/29 04:39:25;;;;;;;;;;;;;;;;;;2222407;58;1959;-80
2023/09/29 04:41:55;;;;;;;;;;;;;;;;;;2223111;58;1915;-80
2023/09/29 04:44:39;;;;;;;;;;;;;;;;;;2221999;58;2080;-80
2023/09/29 04:47:14;;;;;;;;;;;;;;;;;;2223649;58;1845;-80
2023/09/29 04:49:45;;;;;;;;;;;;;;;;;;2222190;58;1675;-81
2023/09/29 04:52:16;;;;;;;;;;;;;;;;;;2223506;58;2639;-80
2023/09/29 04:54:49;;;;;;;;;;;;;;;;;;2222987;66;1941;-80
2023/09/29 04:57:28;;;;;;;;;;;;;;;;;;2221079;58;2040;-80
2023/09/29 04:59:59;;;;;;;;;;;;;;;;;;2223833;66;2010;-81
2023/09/29 05:02:38;;;;;;;;;;;;;;;;;;2222812;58;2023;-80
2023/09/29 05:05:09;;;;;;;;;;;;;;;;;;2223772;58;1780;-80
2023/09/29 05:07:39;;;;;;;;;;;;;;;;;;2222275;58;2180;-81
2023/09/29 05:10:13;;;;;;;;;;;;;;;;;;2223148;58;2433;-82
2023/09/29 05:12:47;;;;;;;;;;;;;;;;;;2223218;58;2232;-80
2023/09/29 05:15:23;;;;;;;;;;;;;;;;;;2222428;58;1940;-80
2023/09/29 05:18:13;;;;;;;;;;;;;;;;;;2223604;58;1854;-80
2023/09/29 05:20:47;;;;;;;;;;;;;;;;;;2221001;58;3650;-80
2023/09/29 05:23:25;;;;;;;;;;;;;;;;;;2222608;59;1786;-81
2023/09/29 05:26:01;;;;;;;;;;;;;;;;;;2224489;58;1719;-81
2023/09/29 05:28:40;;;;;;;;;;;;;;;;;;2222905;58;1840;-83
2023/09/29 05:31:11;;;;;;;;;;;;;;;;;;2223014;58;2201;-81
2023/09/29 05:33:44;;;;;;;;;;;;;;;;;;2222320;58;1981;-81
2023/09/29 05:36:20;;;;;;;;;;;;;;;;;;2223393;58;1965;-81
2023/09/29 05:38:54;;;;;;;;;;;;;;;;;;2224336;59;2351;-80
2023/09/29 05:41:28;;;;;;;;;;;;;;;;;;2223096;58;1884;-81
2023/09/29 05:44:01;;;;;;;;;;;;;;;;;;2223117;58;1792;-81
2023/09/29 05:46:32;;;;;;;;;;;;;;;;;;2221993;58;2631;-81
2023/09/29 05:49:09;;;;;;;;;;;;;;;;;;2222508;58;1791;-80
2023/09/29 05:51:48;;;;;;;;;;;;;;;;;;2222147;58;1745;-81
2023/09/29 05:54:21;;;;;;;;;;;;;;;;;;2223310;58;1988;-81
2023/09/29 05:56:53;;;;;;;;;;;;;;;;;;2221110;58;2053;-81
2023/09/29 05:59:25;;;;;;;;;;;;;;;;;;2222469;58;1799;-80
2023/09/29 06:02:01;;;;;;;;;;;;;;;;;;2224718;58;1837;-80
2023/09/29 06:04:34;;;;;;;;;;;;;;;;;;2221892;59;1746;-79
2023/09/29 06:07:04;;;;;;;;;;;;;;;;;;2223299;58;2541;-81
2023/09/29 06:09:35;;;;;;;;;;;;;;;;;;2219909;58;2124;-79
2023/09/29 06:12:09;;;;;;;;;;;;;;;;;;2223881;58;2491;-80
2023/09/29 06:14:41;;;;;;;;;;;;;;;;;;2221269;58;2210;-80
2023/09/29 06:17:27;;;;;;;;;;;;;;;;;;2223899;58;2018;-80
2023/09/29 06:20:04;;;;;;;;;;;;;;;;;;2224258;58;1522;-80
2023/09/29 06:22:47;;;;;;;;;;;;;;;;;;2226234;58;2442;-80
2023/09/29 06:25:26;;;;;;;;;;;;;;;;;;2229607;58;1893;-80
2023/09/29 06:28:00;;;;;;;;;;;;;;;;;;2228512;58;1797;-80
2023/09/29 06:30:35;;;;;;;;;;;;;;;;;;2223130;58;2455;-79
2023/09/29 06:33:07;;;;;;;;;;;;;;;;;;2223357;58;1776;-80
2023/09/29 06:35:40;;;;;;;;;;;;;;;;;;2224918;58;2761;-80
2023/09/29 06:38:15;;;;;;;;;;;;;;;;;;2230741;58;2405;-80
2023/09/29 06:40:46;;;;;;;;;;;;;;;;;;2228542;58;3469;-80
2023/09/29 06:43:19;;;;;;;;;;;;;;;;;;2226261;58;1595;-79
2023/09/29 06:45:50;;;;;;;;;;;;;;;;;;2222843;58;1957;-80
2023/09/29 06:48:24;;;;;;;;;;;;;;;;;;2226031;66;1997;-79
2023/09/29 06:51:03;;;;;;;;;;;;;;;;;;2222993;58;2390;-81
2023/09/29 06:53:36;;;;;;;;;;;;;;;;;;2221714;58;2106;-80
2023/09/29 06:56:10;;;;;;;;;;;;;;;;;;2223598;58;2574;-80
2023/09/29 06:58:50;;;;;;;;;;;;;;;;;;2222233;58;1815;-80
2023/09/29 07:01:28;;;;;;;;;;;;;;;;;;2223380;58;1835;-80
2023/09/29 07:04:08;;;;;;;;;;;;;;;;;;2222808;58;2605;-80
2023/09/29 07:06:38;;;;;;;;;;;;;;;;;;2222047;58;2366;-80
2023/09/29 07:09:13;;;;;;;;;;;;;;;;;;2222000;58;1576;-80
2023/09/29 07:11:49;;;;;;;;;;;;;;;;;;2220217;58;2539;-80
2023/09/29 07:14:20;;;;;;;;;;;;;;;;;;2222332;58;1948;-81
2023/09/29 07:16:56;;;;;;;;;;;;;;;;;;2221857;58;2588;-80
2023/09/29 07:19:28;;;;;;;;;;;;;;;;;;2219663;58;1736;-81
2023/09/29 07:22:16;;;;;;;;;;;;;;;;;;2221373;58;2378;-81
2023/09/29 07:24:50;;;;;;;;;;;;;;;;;;2221126;58;2673;-80
2023/09/29 07:27:23;;;;;;;;;;;;;;;;;;2222709;58;1818;-81
2023/09/29 07:30:02;;;;;;;;;;;;;;;;;;2220947;58;1665;-80
2023/09/29 07:32:35;;;;;;;;;;;;;;;;;;2220500;58;2425;-81
2023/09/29 07:35:15;;;;;;;;;;;;;;;;;;2222230;58;2234;-80
2023/09/29 07:37:45;;;;;;;;;;;;;;;;;;2221231;58;1930;-80
2023/09/29 07:40:19;;;;;;;;;;;;;;;;;;2222190;58;2006;-81
2023/09/29 07:42:57;;;;;;;;;;;;;;;;;;2221412;58;1821;-81
2023/09/29 07:45:34;;;;;;;;;;;;;;;;;;2220812;58;1741;-81
2023/09/29 07:48:11;;;;;;;;;;;;;;;;;;2222707;58;1622;-80
2023/09/29 07:50:44;;;;;;;;;;;;;;;;;;2217841;58;3553;-81
2023/09/29 07:53:15;;;;;;;;;;;;;;;;;;2222349;58;2298;-81
2023/09/29 07:55:45;;;;;;;;;;;;;;;;;;2220337;58;3357;-80
2023/09/29 07:58:21;;;;;;;;;;;;;;;;;;2222428;58;2484;-81
2023/09/29 08:00:51;;;;;;;;;;;;;;;;;;2220874;58;2095;-81
2023/09/29 08:03:22;;;;;;;;;;;;;;;;;;2221849;58;1810;-80
2023/09/29 08:05:54;;;;;;;;;;;;;;;;;;2220408;58;2024;-80
2023/09/29 08:08:28;;;;;;;;;;;;;;;;;;2221444;58;1704;-80
2023/09/29 08:11:03;;;;;;;;;;;;;;;;;;2221431;58;2068;-80
2023/09/29 08:13:34;;;;;;;;;;;;;;;;;;2219616;58;2410;-80
2023/09/29 08:16:07;;;;;;;;;;;;;;;;;;2221489;58;1810;-81
2023/09/29 08:18:37;;;;;;;;;;;;;;;;;;2220365;58;1860;-81
2023/09/29 08:21:10;;;;;;;;;;;;;;;;;;2221723;58;2713;-81
2023/09/29 08:23:41;;;;;;;;;;;;;;;;;;2219362;58;1847;-81
2023/09/29 08:26:11;;;;;;;;;;;;;;;;;;2221038;58;2096;-81
2023/09/29 08:28:52;;;;;;;;;;;;;;;;;;2218749;58;1735;-81
2023/09/29 08:31:22;;;;;;;;;;;;;;;;;;2219917;58;1895;-80
2023/09/29 08:33:52;;;;;;;;;;;;;;;;;;2219888;58;2128;-80
2023/09/29 08:36:23;;;;;;;;;;;;;;;;;;2221885;66;1847;-80
2023/09/29 08:38:55;;;;;;;;;;;;;;;;;;2220492;58;1840;-80
2023/09/29 08:41:29;;;;;;;;;;;;;;;;;;2222057;58;2147;-81
2023/09/29 08:44:06;;;;;;;;;;;;;;;;;;2220336;58;1997;-80
2023/09/29 08:46:40;;;;;;;;;;;;;;;;;;2218721;58;2055;-80
2023/09/29 08:49:15;;;;;;;;;;;;;;;;;;2220901;58;2834;-81
2023/09/29 08:51:46;;;;;;;;;;;;;;;;;;2220330;58;2069;-80
2023/09/29 08:54:18;;;;;;;;;;;;;;;;;;2221604;58;2102;-80
2023/09/29 08:56:49;;;;;;;;;;;;;;;;;;2220477;58;2703;-80
2023/09/29 08:59:21;;;;;;;;;;;;;;;;;;2221966;58;2682;-80
2023/09/29 09:01:55;;;;;;;;;;;;;;;;;;2220601;58;2457;-81
2023/09/29 09:04:27;;;;;;;;;;;;;;;;;;2220790;58;2226;-83
2023/09/29 09:06:57;;;;;;;;;;;;;;;;;;2220665;58;2325;-81
2023/09/29 09:09:30;;;;;;;;;;;;;;;;;;2221506;58;1654;-80
2023/09/29 09:12:01;;;;;;;;;;;;;;;;;;2219730;58;2634;-81
2023/09/29 09:14:41;;;;;;;;;;;;;;;;;;2219643;58;2207;-81
2023/09/29 09:17:12;;;;;;;;;;;;;;;;;;2221357;58;3071;-81
2023/09/29 09:19:50;;;;;;;;;;;;;;;;;;2219626;58;1855;-81
2023/09/29 09:22:24;;;;;;;;;;;;;;;;;;2220577;58;1808;-80
2023/09/29 09:24:58;;;;;;;;;;;;;;;;;;2219241;58;1873;-81
2023/09/29 09:27:38;;;;;;;;;;;;;;;;;;2221286;58;1897;-81
2023/09/29 09:30:22;;;;;;;;;;;;;;;;;;2220103;58;1824;-81
2023/09/29 09:32:52;;;;;;;;;;;;;;;;;;2221470;58;1883;-81
2023/09/29 09:35:27;;;;;;;;;;;;;;;;;;2230818;58;1895;-80
2023/09/29 09:38:01;;;;;;;;;;;;;;;;;;2220502;58;2305;-80
2023/09/29 09:40:34;;;;;;;;;;;;;;;;;;2221287;58;1775;-81
2023/09/29 09:43:10;;;;;;;;;;;;;;;;;;2217610;58;1933;-80
2023/09/29 09:45:45;;;;;;;;;;;;;;;;;;2218023;58;2106;-80
2023/09/29 09:48:20;;;;;;;;;;;;;;;;;;2218984;58;1614;-80
2023/09/29 09:51:00;;;;;;;;;;;;;;;;;;2218785;58;1710;-81
2023/09/29 09:53:40;;;;;;;;;;;;;;;;;;2219032;58;1989;-80
2023/09/29 09:56:19;;;;;;;;;;;;;;;;;;2220746;58;1650;-80
2023/09/29 09:58:49;;;;;;;;;;;;;;;;;;2219390;58;1637;-80
2023/09/29 10:01:20;;;;;;;;;;;;;;;;;;2221268;58;2268;-80
2023/09/29 10:03:51;;;;;;;;;;;;;;;;;;2218816;58;1716;-81
2023/09/29 10:06:22;;;;;;;;;;;;;;;;;;2220622;58;1957;-81
2023/09/29 10:08:58;;;;;;;;;;;;;;;;;;2219366;58;1858;-81
2023/09/29 10:11:31;;;;;;;;;;;;;;;;;;2219932;58;2369;-81
2023/09/29 10:14:03;;;;;;;;;;;;;;;;;;2215908;58;2342;-81
2023/09/29 10:16:35;;;;;;;;;;;;;;;;;;2220569;58;1996;-81
2023/09/29 10:19:12;;;;;;;;;;;;;;;;;;2219743;58;1692;-81
2023/09/29 10:21:45;;;;;;;;;;;;;;;;;;2217769;58;2173;-81
2023/09/29 10:24:25;;;;;;;;;;;;;;;;;;2219844;58;1869;-81
2023/09/29 10:26:59;;;;;;;;;;;;;;;;;;2218042;58;1748;-81
2023/09/29 10:29:30;;;;;;;;;;;;;;;;;;2219363;58;2062;-81
2023/09/29 10:32:20;;;;;;;;;;;;;;;;;;2217787;58;2104;-81
2023/09/29 10:34:59;;;;;;;;;;;;;;;;;;2217690;58;1909;-80
2023/09/29 10:37:41;;;;;;;;;;;;;;;;;;2219499;58;2068;-81
2023/09/29 10:40:24;;;;;;;;;;;;;;;;;;2218889;58;1734;-81
2023/09/29 10:42:56;;;;;;;;;;;;;;;;;;2217175;58;1990;-80
2023/09/29 10:45:31;;;;;;;;;;;;;;;;;;2216401;59;1666;-80
2023/09/29 10:48:08;;;;;;;;;;;;;;;;;;2217153;58;1622;-81
2023/09/29 10:50:49;;;;;;;;;;;;;;;;;;2217714;58;1869;-81
2023/09/29 10:53:22;;;;;;;;;;;;;;;;;;2218598;58;2336;-81
2023/09/29 10:55:54;;;;;;;;;;;;;;;;;;2218578;58;4258;-81
2023/09/29 10:58:27;;;;;;;;;;;;;;;;;;2220282;58;3118;-81
2023/09/29 11:00:57;;;;;;;;;;;;;;;;;;2218246;58;2357;-81
2023/09/29 11:03:28;;;;;;;;;;;;;;;;;;2219642;58;1849;-81
2023/09/29 11:05:58;;;;;;;;;;;;;;;;;;2218042;58;1872;-81
2023/09/29 11:08:29;;;;;;;;;;;;;;;;;;2220122;58;1810;-81
2023/09/29 11:11:03;;;;;;;;;;;;;;;;;;2218657;58;1733;-81
2023/09/29 11:13:37;;;;;;;;;;;;;;;;;;2220313;58;2341;-81
2023/09/29 11:16:14;;;;;;;;;;;;;;;;;;2216884;58;2340;-81
2023/09/29 11:18:45;;;;;;;;;;;;;;;;;;2218299;58;2470;-81
2023/09/29 11:21:18;;;;;;;;;;;;;;;;;;2219467;66;1935;-82
2023/09/29 11:23:49;;;;;;;;;;;;;;;;;;2217503;58;2325;-81
2023/09/29 11:26:20;;;;;;;;;;;;;;;;;;2219684;58;2258;-81
2023/09/29 11:28:51;;;;;;;;;;;;;;;;;;2218036;58;1847;-81
2023/09/29 11:31:22;;;;;;;;;;;;;;;;;;2220284;58;2043;-81
2023/09/29 11:33:52;;;;;;;;;;;;;;;;;;2217810;58;2590;-81
2023/09/29 11:36:24;;;;;;;;;;;;;;;;;;2218592;58;1477;-81
2023/09/29 11:38:55;;;;;;;;;;;;;;;;;;2219093;58;1925;-81
2023/09/29 11:41:25;;;;;;;;;;;;;;;;;;2219314;58;2093;-81
2023/09/29 11:43:56;;;;;;;;;;;;;;;;;;2217283;58;1884;-81
2023/09/29 11:46:26;;;;;;;;;;;;;;;;;;2219495;58;2291;-81
2023/09/29 11:48:56;;;;;;;;;;;;;;;;;;2218356;58;1819;-81
2023/09/29 11:51:26;;;;;;;;;;;;;;;;;;2221099;58;2648;-81
2023/09/29 11:53:57;;;;;;;;;;;;;;;;;;2217757;58;2438;-81
2023/09/29 11:56:27;;;;;;;;;;;;;;;;;;2219722;58;2855;-81
2023/09/29 11:58:57;;;;;;;;;;;;;;;;;;2218543;58;2394;-81
2023/09/29 12:01:29;;;;;;;;;;;;;;;;;;2220895;58;1693;-81
2023/09/29 12:03:59;;;;;;;;;;;;;;;;;;2224710;58;2244;-81
2023/09/29 12:06:29;;;;;;;;;;;;;;;;;;2224296;59;2641;-81
2023/09/29 12:09:00;;;;;;;;;;;;;;;;;;2221100;58;2518;-82
2023/09/29 12:11:31;;;;;;;;;;;;;;;;;;2219892;58;1797;-81
2023/09/29 12:14:03;;;;;;;;;;;;;;;;;;2218881;58;1929;-82
2023/09/29 12:16:34;;;;;;;;;;;;;;;;;;2224659;58;2491;-81
2023/09/29 12:19:07;;;;;;;;;;;;;;;;;;2226908;58;2617;-81
2023/09/29 12:21:38;;;;;;;;;;;;;;;;;;2227908;66;2505;-81
2023/09/29 12:24:08;;;;;;;;;;;;;;;;;;2220928;58;2978;-81
2023/09/29 12:26:42;;;;;;;;;;;;;;;;;;2220490;58;1700;-81
2023/09/29 12:29:15;;;;;;;;;;;;;;;;;;2220074;58;1844;-81
2023/09/29 12:31:46;;;;;;;;;;;;;;;;;;2218185;58;2531;-80
2023/09/29 12:34:17;;;;;;;;;;;;;;;;;;2219689;58;2026;-81
2023/09/29 12:36:48;;;;;;;;;;;;;;;;;;2217794;58;2956;-81
2023/09/29 12:39:18;;;;;;;;;;;;;;;;;;2219756;58;1606;-81
2023/09/29 12:41:49;;;;;;;;;;;;;;;;;;2218456;58;2966;-81
2023/09/29 12:44:19;;;;;;;;;;;;;;;;;;2219431;58;2195;-81
2023/09/29 12:46:50;;;;;;;;;;;;;;;;;;2218277;58;1953;-80
2023/09/29 12:49:24;;;;;;;;;;;;;;;;;;2221328;58;1829;-81
2023/09/29 12:51:58;;;;;;;;;;;;;;;;;;2215823;58;2473;-81
2023/09/29 12:54:29;;;;;;;;;;;;;;;;;;2220281;66;2638;-81
2023/09/29 12:56:59;;;;;;;;;;;;;;;;;;2223017;58;1542;-80
2023/09/29 12:59:36;;;;;;;;;;;;;;;;;;2220540;58;2829;-81
2023/09/29 13:02:07;;;;;;;;;;;;;;;;;;2218779;58;2320;-81
2023/09/29 13:04:37;;;;;;;;;;;;;;;;;;2219827;58;2270;-80
2023/09/29 13:07:11;;;;;;;;;;;;;;;;;;2218482;58;3095;-80
2023/09/29 13:09:42;;;;;;;;;;;;;;;;;;2220854;58;1947;-81
2023/09/29 13:12:17;;;;;;;;;;;;;;;;;;2220075;58;3053;-80
2023/09/29 13:14:48;;;;;;;;;;;;;;;;;;2218833;58;2651;-80
2023/09/29 13:17:18;;;;;;;;;;;;;;;;;;2219939;58;2687;-81
2023/09/29 13:19:49;;;;;;;;;;;;;;;;;;2218709;58;2637;-80
2023/09/29 13:22:19;;;;;;;;;;;;;;;;;;2221197;58;1770;-81
2023/09/29 13:24:50;;;;;;;;;;;;;;;;;;2215602;58;3245;-81
2023/09/29 13:27:20;;;;;;;;;;;;;;;;;;2218990;58;2219;-81
2023/09/29 13:29:51;;;;;;;;;;;;;;;;;;2219706;58;2607;-80
2023/09/29 13:32:22;;;;;;;;;;;;;;;;;;2220713;58;2286;-80
2023/09/29 13:34:55;;;;;;;;;;;;;;;;;;2219048;58;1966;-80
2023/09/29 13:37:26;;;;;;;;;;;;;;;;;;2220142;58;1967;-80
2023/09/29 13:39:57;;;;;;;;;;;;;;;;;;2219178;58;2444;-80
2023/09/29 13:42:27;;;;;;;;;;;;;;;;;;2220390;58;1945;-80
2023/09/29 13:44:57;;;;;;;;;;;;;;;;;;2219533;58;1856;-80
2023/09/29 13:47:28;;;;;;;;;;;;;;;;;;2220359;66;2460;-81
2023/09/29 13:50:01;;;;;;;;;;;;;;;;;;2219493;58;1766;-80
2023/09/29 13:52:32;;;;;;;;;;;;;;;;;;2220020;58;1729;-84
2023/09/29 13:55:04;;;;;;;;;;;;;;;;;;2219731;58;4225;-81
2023/09/29 13:57:35;;;;;;;;;;;;;;;;;;2220118;58;1896;-81
2023/09/29 14:00:08;;;;;;;;;;;;;;;;;;2219676;58;2483;-80
2023/09/29 14:02:38;;;;;;;;;;;;;;;;;;2219736;58;2046;-80
2023/09/29 14:05:11;;;;;;;;;;;;;;;;;;2217978;58;2156;-80
2023/09/29 14:07:41;;;;;;;;;;;;;;;;;;2221121;58;1752;-80
2023/09/29 14:10:12;;;;;;;;;;;;;;;;;;2218759;58;2448;-80
2023/09/29 14:12:42;;;;;;;;;;;;;;;;;;2220759;58;1669;-80
2023/09/29 14:15:13;;;;;;;;;;;;;;;;;;2219213;58;2631;-83
2023/09/29 14:17:44;;;;;;;;;;;;;;;;;;2220469;58;2978;-80
2023/09/29 14:20:15;;;;;;;;;;;;;;;;;;2219880;58;2628;-80
2023/09/29 14:22:45;;;;;;;;;;;;;;;;;;2221063;58;1766;-80
2023/09/29 14:25:16;;;;;;;;;;;;;;;;;;2219383;58;1797;-81
2023/09/29 14:27:46;;;;;;;;;;;;;;;;;;2221391;58;1865;-79
2023/09/29 14:30:16;;;;;;;;;;;;;;;;;;2219291;58;1746;-80
2023/09/29 14:32:46;;;;;;;;;;;;;;;;;;2222370;58;1933;-80
2023/09/29 14:35:17;;;;;;;;;;;;;;;;;;2224689;58;1986;-80
2023/09/29 14:37:48;;;;;;;;;;;;;;;;;;2220179;58;1677;-81
2023/09/29 14:40:22;;;;;;;;;;;;;;;;;;2218936;58;2363;-80
2023/09/29 14:42:52;;;;;;;;;;;;;;;;;;2218143;58;1938;-81
2023/09/29 14:45:23;;;;;;;;;;;;;;;;;;2220635;58;1954;-80
2023/09/29 14:47:54;;;;;;;;;;;;;;;;;;2218902;58;1774;-80
2023/09/29 14:50:27;;;;;;;;;;;;;;;;;;2221398;58;2381;-80
2023/09/29 14:52:58;;;;;;;;;;;;;;;;;;2218487;58;1950;-79
2023/09/29 14:55:28;;;;;;;;;;;;;;;;;;2219977;58;1997;-81
2023/09/29 14:57:59;;;;;;;;;;;;;;;;;;2218315;58;2005;-81
2023/09/29 15:00:31;;;;;;;;;;;;;;;;;;2219199;58;2613;-80
2023/09/29 15:03:01;;;;;;;;;;;;;;;;;;2219269;58;2432;-80
2023/09/29 15:05:34;;;;;;;;;;;;;;;;;;2219565;58;2187;-80
2023/09/29 15:08:05;;;;;;;;;;;;;;;;;;2219367;58;2049;-81
2023/09/29 15:10:35;;;;;;;;;;;;;;;;;;2217673;58;1771;-80
2023/09/29 15:13:07;;;;;;;;;;;;;;;;;;2218052;58;2181;-80
2023/09/29 15:15:39;;;;;;;;;;;;;;;;;;2221106;58;1930;-81
2023/09/29 15:18:09;;;;;;;;;;;;;;;;;;2218955;58;2188;-80
2023/09/29 15:20:40;;;;;;;;;;;;;;;;;;2220651;58;2367;-81
2023/09/29 15:23:10;;;;;;;;;;;;;;;;;;2219790;58;1819;-80
2023/09/29 15:25:44;;;;;;;;;;;;;;;;;;2221486;58;1916;-81
2023/09/29 15:28:15;;;;;;;;;;;;;;;;;;2216290;58;2395;-80
2023/09/29 15:30:46;;;;;;;;;;;;;;;;;;2220517;58;2215;-81
2023/09/29 15:33:16;;;;;;;;;;;;;;;;;;2219417;58;2891;-80
2023/09/29 15:35:51;;;;;;;;;;;;;;;;;;2221292;58;1915;-80
2023/09/29 15:38:23;;;;;;;;;;;;;;;;;;2219861;58;2954;-80
2023/09/29 15:40:53;;;;;;;;;;;;;;;;;;2217941;58;2309;-80
2023/09/29 15:43:24;;;;;;;;;;;;;;;;;;2219721;58;2896;-80
2023/09/29 15:45:55;;;;;;;;;;;;;;;;;;2218890;58;1829;-80
2023/09/29 15:48:30;;;;;;;;;;;;;;;;;;2220278;58;2047;-80
2023/09/29 15:51:01;;;;;;;;;;;;;;;;;;2219602;58;1761;-80
2023/09/29 15:53:36;;;;;;;;;;;;;;;;;;2221675;58;3330;-80
2023/09/29 15:56:07;;;;;;;;;;;;;;;;;;2220436;58;2118;-80
2023/09/29 15:58:41;;;;;;;;;;;;;;;;;;2221583;58;2624;-80
2023/09/29 16:01:12;;;;;;;;;;;;;;;;;;2220547;58;2461;-80
2023/09/29 16:03:44;;;;;;;;;;;;;;;;;;2221444;58;1848;-80
2023/09/29 16:06:14;;;;;;;;;;;;;;;;;;2220765;58;3080;-81
2023/09/29 16:08:47;;;;;;;;;;;;;;;;;;2221492;58;1681;-80
2023/09/29 16:11:17;;;;;;;;;;;;;;;;;;2223323;58;2004;-80
2023/09/29 16:13:48;;;;;;;;;;;;;;;;;;2221634;58;1924;-80
2023/09/29 16:16:18;;;;;;;;;;;;;;;;;;2220567;58;2338;-80
2023/09/29 16:18:48;;;;;;;;;;;;;;;;;;2221392;58;2177;-80
2023/09/29 16:21:19;;;;;;;;;;;;;;;;;;2220113;58;2481;-80
2023/09/29 16:23:51;;;;;;;;;;;;;;;;;;2222404;58;2885;-80
2023/09/29 16:26:21;;;;;;;;;;;;;;;;;;2222092;58;1664;-80
2023/09/29 16:28:52;;;;;;;;;;;;;;;;;;2221525;58;2025;-80
2023/09/29 16:31:30;;;;;;;;;;;;;;;;;;2218454;59;3353;-81
2023/09/29 16:34:00;;;;;;;;;;;;;;;;;;2220924;58;1919;-80
2023/09/29 16:36:32;;;;;;;;;;;;;;;;;;2221672;58;1534;-81
2023/09/29 16:39:05;;;;;;;;;;;;;;;;;;2219865;58;3226;-81
2023/09/29 16:41:38;;;;;;;;;;;;;;;;;;2221836;58;1748;-80
2023/09/29 16:44:09;;;;;;;;;;;;;;;;;;2220287;58;2136;-80
2023/09/29 16:46:47;;;;;;;;;;;;;;;;;;2222024;58;2648;-80
2023/09/29 16:49:21;;;;;;;;;;;;;;;;;;2217611;58;1989;-80
2023/09/29 16:51:51;;;;;;;;;;;;;;;;;;2220904;58;3483;-82
2023/09/29 16:54:23;;;;;;;;;;;;;;;;;;2220185;58;2996;-80
2023/09/29 16:56:53;;;;;;;;;;;;;;;;;;2220741;58;2620;-79
2023/09/29 16:59:23;;;;;;;;;;;;;;;;;;2220973;58;3246;-80
2023/09/29 17:01:54;;;;;;;;;;;;;;;;;;2222707;66;1962;-80
2023/09/29 17:04:24;;;;;;;;;;;;;;;;;;2221133;58;2480;-80
2023/09/29 17:06:55;;;;;;;;;;;;;;;;;;2222374;59;1742;-80
2023/09/29 17:09:26;;;;;;;;;;;;;;;;;;2220351;58;2647;-81
2023/09/29 17:11:56;;;;;;;;;;;;;;;;;;2222486;58;1754;-80
2023/09/29 17:14:30;;;;;;;;;;;;;;;;;;2221988;58;2452;-80
2023/09/29 17:17:00;;;;;;;;;;;;;;;;;;2221038;58;1819;-80
2023/09/29 17:19:31;;;;;;;;;;;;;;;;;;2223574;58;2252;-80
2023/09/29 17:22:04;;;;;;;;;;;;;;;;;;2222078;58;2681;-80
2023/09/29 17:24:38;;;;;;;;;;;;;;;;;;2222667;58;2041;-80
2023/09/29 17:27:13;;;;;;;;;;;;;;;;;;2218218;58;2335;-80
2023/09/29 17:29:43;;;;;;;;;;;;;;;;;;2224148;58;1831;-80
2023/09/29 17:32:17;;;;;;;;;;;;;;;;;;2226490;58;3097;-80
2023/09/29 17:34:47;;;;;;;;;;;;;;;;;;2226658;58;2260;-81
2023/09/29 17:37:18;;;;;;;;;;;;;;;;;;2219175;58;2007;-80
2023/09/29 17:39:50;;;;;;;;;;;;;;;;;;2221526;58;3180;-80
2023/09/29 17:42:21;;;;;;;;;;;;;;;;;;2227835;58;1928;-80
2023/09/29 17:44:52;;;;;;;;;;;;;;;;;;2230623;58;1656;-79
2023/09/29 17:47:22;;;;;;;;;;;;;;;;;;2225570;58;1686;-79